createdAt,value
2019-01-09T00:01:18.948Z,1.02
2019-01-09T00:03:47.599Z,1.25
2019-01-09T00:06:16.352Z,1.50
2019-01-09T00:08:45.501Z,1.50
2019-01-09T00:11:14.602Z,1.40
2019-01-09T00:13:43.518Z,1.30
2019-01-09T00:16:12.588Z,1.30
2019-01-09T00:18:41.403Z,1.22
2019-01-09T00:21:10.400Z,1.25
2019-01-09T00:23:39.362Z,1.70
2019-01-09T00:26:08.361Z,1.40
2019-01-09T00:28:37.343Z,1.67
2019-01-09T00:31:06.260Z,1.95
2019-01-09T00:33:35.014Z,1.17
2019-01-09T00:36:03.809Z,1.70
2019-01-09T00:38:32.694Z,1.75
2019-01-09T00:41:01.570Z,1.80
2019-01-09T00:43:30.627Z,1.35
2019-01-09T00:45:59.817Z,1.60
2019-01-09T00:48:28.742Z,1.80
2019-01-09T00:50:57.767Z,2.30
2019-01-09T00:53:26.990Z,1.47
2019-01-09T00:55:57.581Z,1.70
2019-01-09T00:58:26.587Z,1.50
2019-01-09T01:00:55.701Z,1.57
2019-01-09T01:03:33.577Z,1.85
2019-01-09T01:06:22.663Z,1.50
2019-01-09T01:09:11.538Z,1.25
2019-01-09T01:12:03.778Z,1.42
2019-01-09T01:15:10.662Z,1.30
2019-01-09T01:17:49.661Z,1.57
2019-01-09T01:20:38.303Z,1.67
2019-01-09T01:23:12.960Z,1.40
2019-01-09T01:25:47.804Z,1.47
2019-01-09T01:28:44.921Z,1.57
2019-01-09T01:31:38.075Z,1.42
2019-01-09T01:34:10.261Z,1.20
2019-01-09T01:36:48.045Z,1.52
2019-01-09T01:39:34.961Z,1.37
2019-01-09T01:42:19.217Z,1.60
2019-01-09T01:44:51.067Z,1.30
2019-01-09T01:47:35.319Z,1.25
2019-01-09T01:50:32.681Z,1.12
2019-01-09T01:53:07.710Z,1.22
2019-01-09T01:56:06.700Z,1.60
2019-01-09T01:58:41.427Z,1.25
2019-01-09T02:01:43.421Z,1.77
2019-01-09T02:04:39.527Z,1.30
2019-01-09T02:07:34.642Z,1.40
2019-01-09T02:10:09.246Z,1.32
2019-01-09T02:13:06.928Z,1.40
2019-01-09T02:15:55.582Z,1.65
2019-01-09T02:18:28.148Z,1.10
2019-01-09T02:21:02.918Z,1.60
2019-01-09T02:23:44.922Z,1.85
2019-01-09T02:26:16.861Z,1.37
2019-01-09T02:28:57.856Z,1.62
2019-01-09T02:31:42.185Z,1.15
2019-01-09T02:34:11.083Z,1.22
2019-01-09T02:36:39.962Z,1.07
2019-01-09T02:39:08.841Z,1.70
2019-01-09T02:41:37.742Z,1.90
2019-01-09T02:44:06.638Z,1.40
2019-01-09T02:46:35.521Z,1.42
2019-01-09T02:49:04.542Z,1.15
2019-01-09T02:51:33.610Z,1.30
2019-01-09T02:54:02.519Z,1.65
2019-01-09T02:56:31.602Z,1.62
2019-01-09T02:59:00.481Z,1.57
2019-01-09T03:01:29.398Z,1.50
2019-01-09T03:03:58.262Z,1.37
2019-01-09T03:06:27.262Z,1.60
2019-01-09T03:08:56.143Z,2.27
2019-01-09T03:11:25.242Z,1.52
2019-01-09T03:13:54.133Z,2.00
2019-01-09T03:16:23.129Z,1.50
2019-01-09T03:18:52.287Z,1.70
2019-01-09T03:21:22.468Z,1.90
2019-01-09T03:23:51.416Z,1.50
2019-01-09T03:26:20.467Z,2.12
2019-01-09T03:28:49.346Z,1.67
2019-01-09T03:31:18.513Z,1.80
2019-01-09T03:33:47.567Z,1.65
2019-01-09T03:36:16.387Z,1.50
2019-01-09T03:38:45.700Z,1.65
2019-01-09T03:41:14.801Z,1.62
2019-01-09T03:43:43.759Z,1.42
2019-01-09T03:46:12.828Z,1.72
2019-01-09T03:48:42.171Z,2.02
2019-01-09T03:51:11.082Z,1.57
2019-01-09T03:53:40.078Z,1.65
2019-01-09T03:56:09.051Z,1.80
2019-01-09T03:58:37.962Z,1.65
2019-01-09T04:01:06.734Z,1.52
2019-01-09T04:03:35.623Z,1.75
2019-01-09T04:06:04.523Z,1.65
2019-01-09T04:08:33.310Z,1.55
2019-01-09T04:11:02.102Z,1.62
2019-01-09T04:13:30.889Z,1.80
2019-01-09T04:15:59.560Z,1.77
2019-01-09T04:18:28.564Z,1.80
2019-01-09T04:20:57.233Z,1.65
2019-01-09T04:23:26.141Z,1.80
2019-01-09T04:25:55.037Z,1.87
2019-01-09T04:28:23.836Z,1.85
2019-01-09T04:30:52.701Z,1.95
2019-01-09T04:33:21.803Z,1.85
2019-01-09T04:35:50.979Z,3.60
2019-01-09T04:38:19.941Z,4.40
2019-01-09T04:40:49.102Z,3.83
2019-01-09T04:43:17.881Z,4.17
2019-01-09T04:45:46.765Z,4.50
2019-01-09T04:48:15.761Z,4.30
2019-01-09T04:50:44.661Z,4.20
2019-01-09T04:53:13.549Z,4.10
2019-01-09T04:55:42.642Z,3.52
2019-01-09T04:58:11.649Z,4.58
2019-01-09T05:00:40.520Z,4.40
2019-01-09T05:03:09.421Z,4.05
2019-01-09T05:05:41.696Z,3.42
2019-01-09T05:08:10.603Z,4.12
2019-01-09T05:10:39.890Z,3.20
2019-01-09T05:13:08.669Z,3.60
2019-01-09T05:15:37.442Z,3.67
2019-01-09T05:18:06.259Z,3.27
2019-01-09T05:20:35.121Z,3.77
2019-01-09T05:23:04.138Z,2.58
2019-01-09T05:25:33.235Z,3.37
2019-01-09T05:28:02.001Z,3.00
2019-01-09T05:30:30.883Z,3.00
2019-01-09T05:32:59.782Z,2.80
2019-01-09T05:35:28.556Z,2.85
2019-01-09T05:37:57.461Z,2.90
2019-01-09T05:40:26.456Z,3.62
2019-01-09T05:42:55.341Z,4.37
2019-01-09T05:45:24.229Z,1.90
2019-01-09T05:47:52.996Z,3.58
2019-01-09T06:00:55.378Z,1.70
2019-01-09T06:03:24.248Z,1.80
2019-01-09T06:05:53.178Z,1.77
2019-01-09T06:08:22.141Z,1.70
2019-01-09T06:10:51.021Z,1.50
2019-01-09T06:13:20.023Z,1.35
2019-01-09T06:15:49.022Z,1.70
2019-01-09T06:18:17.901Z,1.50
2019-01-09T06:20:46.572Z,1.75
2019-01-09T06:23:15.554Z,1.87
2019-01-09T06:25:44.590Z,1.57
2019-01-09T06:28:13.349Z,1.60
2019-01-09T06:30:42.241Z,1.45
2019-01-09T06:33:11.050Z,2.02
2019-01-09T06:35:39.916Z,2.37
2019-01-09T06:38:08.821Z,1.67
2019-01-09T06:40:37.718Z,2.20
2019-01-09T06:43:06.601Z,1.70
2019-01-09T06:45:35.376Z,2.65
2019-01-09T06:48:04.490Z,1.82
2019-01-09T06:50:33.450Z,1.75
2019-01-09T06:53:02.336Z,1.82
2019-01-09T06:55:31.262Z,1.50
2019-01-09T06:58:00.261Z,1.55
2019-01-09T07:00:29.461Z,1.98
2019-01-09T07:02:58.343Z,1.50
2019-01-09T07:05:27.149Z,2.27
2019-01-09T07:07:56.221Z,2.10
2019-01-09T07:10:24.919Z,1.70
2019-01-09T07:12:53.678Z,1.80
2019-01-09T07:15:22.662Z,2.00
2019-01-09T07:17:51.681Z,1.80
2019-01-09T07:20:20.568Z,1.37
2019-01-09T07:22:49.661Z,2.08
2019-01-09T07:25:18.452Z,1.80
2019-01-09T07:27:47.233Z,2.02
2019-01-09T07:30:16.120Z,2.85
2019-01-09T07:32:45.121Z,1.37
2019-01-09T07:35:14.021Z,1.90
2019-01-09T07:37:45.309Z,1.70
2019-01-09T07:40:13.523Z,2.05
2019-01-09T07:42:42.421Z,1.85
2019-01-09T07:45:11.521Z,3.45
2019-01-09T07:47:40.437Z,1.70
2019-01-09T07:50:09.623Z,1.22
2019-01-09T07:52:38.596Z,1.98
2019-01-09T07:55:07.383Z,1.32
2019-01-09T07:57:36.298Z,1.32
2019-01-09T08:00:08.060Z,1.57
2019-01-09T08:02:36.941Z,1.27
2019-01-09T08:05:06.217Z,1.50
2019-01-09T08:07:35.516Z,1.85
2019-01-09T08:10:06.881Z,1.27
2019-01-09T08:12:35.798Z,1.60
2019-01-09T08:15:05.378Z,1.40
2019-01-09T08:17:34.378Z,1.65
2019-01-09T08:20:03.070Z,1.50
2019-01-09T08:22:32.161Z,1.52
2019-01-09T08:25:01.049Z,1.52
2019-01-09T08:27:29.941Z,1.77
2019-01-09T08:29:58.829Z,1.40
2019-01-09T08:32:27.601Z,1.10
2019-01-09T08:34:56.396Z,1.55
2019-01-09T08:37:25.509Z,1.85
2019-01-09T08:39:54.701Z,1.60
2019-01-09T08:42:23.464Z,1.67
2019-01-09T08:44:52.482Z,1.70
2019-01-09T08:47:21.361Z,1.45
2019-01-09T08:49:50.561Z,1.70
2019-01-09T08:52:19.661Z,1.72
2019-01-09T08:54:48.549Z,1.95
2019-01-09T08:57:17.424Z,1.82
2019-01-09T08:59:46.426Z,2.52
2019-01-09T09:02:15.322Z,2.20
2019-01-09T09:04:44.222Z,1.72
2019-01-09T09:07:13.087Z,2.62
2019-01-09T09:09:42.079Z,2.40
2019-01-09T09:12:11.109Z,2.05
2019-01-09T09:14:40.083Z,2.33
2019-01-09T09:17:08.973Z,2.08
2019-01-09T09:19:37.873Z,2.40
2019-01-09T09:22:07.283Z,2.40
2019-01-09T09:24:36.473Z,2.00
2019-01-09T09:27:05.253Z,1.57
2019-01-09T09:29:34.364Z,1.80
2019-01-09T09:32:03.334Z,2.15
2019-01-09T09:34:32.211Z,2.05
2019-01-09T09:37:01.333Z,1.52
2019-01-09T09:39:30.104Z,2.10
2019-01-09T09:41:59.020Z,2.12
2019-01-09T09:44:27.893Z,2.25
2019-01-09T09:46:56.793Z,2.22
2019-01-09T09:49:25.691Z,2.95
2019-01-09T09:51:54.657Z,2.00
2019-01-09T09:54:23.538Z,1.95
2019-01-09T09:56:52.553Z,2.80
2019-01-09T09:59:21.535Z,1.70
2019-01-09T10:01:50.533Z,2.62
2019-01-09T10:04:19.311Z,1.95
2019-01-09T10:06:48.314Z,2.47
2019-01-09T10:09:17.515Z,2.25
2019-01-09T10:11:46.478Z,2.98
2019-01-09T10:14:15.530Z,2.58
2019-01-09T10:16:44.593Z,2.45
2019-01-09T10:19:13.510Z,2.35
2019-01-09T10:21:42.471Z,2.98
2019-01-09T10:24:11.259Z,3.22
2019-01-09T10:26:39.970Z,2.85
2019-01-09T10:29:09.053Z,3.50
2019-01-09T10:31:37.933Z,2.47
2019-01-09T10:34:06.711Z,3.12
2019-01-09T10:36:35.672Z,2.40
2019-01-09T10:39:07.137Z,2.42
2019-01-09T10:41:36.053Z,2.17
2019-01-09T10:44:05.043Z,2.08
2019-01-09T10:46:33.841Z,2.60
2019-01-09T10:49:02.489Z,2.90
2019-01-09T10:51:31.421Z,2.10
2019-01-09T10:54:00.788Z,2.58
2019-01-09T10:56:29.613Z,2.25
2019-01-09T10:58:58.272Z,2.92
2019-01-09T11:01:27.173Z,3.05
2019-01-09T11:03:56.052Z,3.02
2019-01-09T11:06:24.862Z,2.52
2019-01-09T11:08:53.858Z,3.00
2019-01-09T11:11:22.734Z,3.45
2019-01-09T11:13:51.688Z,2.50
2019-01-09T11:16:20.533Z,2.90
2019-01-09T11:18:49.414Z,2.02
2019-01-09T11:21:18.417Z,2.35
2019-01-09T11:23:47.201Z,3.05
2019-01-09T11:26:15.968Z,1.98
2019-01-09T11:28:44.981Z,2.00
2019-01-09T11:31:13.881Z,2.60
2019-01-09T11:33:42.752Z,2.67
2019-01-09T11:36:11.842Z,2.80
2019-01-09T11:38:40.637Z,2.50
2019-01-09T11:41:09.632Z,2.15
2019-01-09T11:43:38.715Z,2.50
2019-01-09T11:46:07.513Z,2.08
2019-01-09T11:48:36.193Z,2.00
2019-01-09T11:51:05.510Z,2.37
2019-01-09T11:53:34.301Z,2.30
2019-01-09T11:56:02.868Z,1.82
2019-01-09T11:58:31.831Z,1.85
2019-01-09T12:01:00.373Z,2.25
2019-01-09T12:03:29.233Z,3.02
2019-01-09T12:05:58.034Z,2.45
2019-01-09T12:08:26.493Z,1.70
2019-01-09T12:10:55.295Z,2.20
2019-01-09T12:13:24.494Z,2.15
2019-01-09T12:15:53.394Z,2.50
2019-01-09T12:18:22.273Z,2.10
2019-01-09T12:20:51.273Z,2.60
2019-01-09T12:23:20.153Z,2.72
2019-01-09T12:25:49.016Z,2.50
2019-01-09T12:28:18.271Z,2.17
2019-01-09T12:30:47.045Z,2.60
2019-01-09T12:33:15.924Z,2.83
2019-01-09T12:35:45.013Z,2.20
2019-01-09T12:38:14.013Z,2.05
2019-01-09T12:40:42.992Z,2.77
2019-01-09T12:43:11.713Z,2.90
2019-01-09T12:45:40.573Z,2.75
2019-01-09T12:48:09.251Z,2.02
2019-01-09T12:50:38.093Z,2.15
2019-01-09T12:53:07.578Z,2.00
2019-01-09T12:55:36.502Z,1.90
2019-01-09T12:58:05.311Z,2.10
2019-01-09T13:00:34.133Z,1.70
2019-01-09T13:03:03.013Z,2.00
2019-01-09T13:05:32.165Z,1.95
2019-01-09T13:08:01.013Z,2.02
2019-01-09T13:10:29.793Z,1.95
2019-01-09T13:12:58.801Z,2.20
2019-01-09T13:15:27.475Z,2.30
2019-01-09T13:17:56.027Z,2.05
2019-01-09T13:20:24.906Z,2.00
2019-01-09T13:22:55.220Z,1.80
2019-01-09T13:25:24.053Z,1.70
2019-01-09T13:27:53.390Z,2.00
2019-01-09T13:30:22.701Z,1.92
2019-01-09T13:32:51.512Z,1.95
2019-01-09T13:35:20.562Z,2.10
2019-01-09T13:37:49.335Z,1.82
2019-01-09T13:40:19.224Z,1.77
2019-01-09T13:42:48.036Z,2.00
2019-01-09T13:45:18.503Z,2.15
2019-01-09T13:47:47.453Z,1.87
2019-01-09T13:50:18.067Z,1.60
2019-01-09T13:52:46.955Z,1.02
2019-01-09T13:55:16.688Z,1.00
2019-01-09T13:57:45.775Z,0.85
2019-01-09T14:00:17.322Z,0.70
2019-01-09T14:02:46.103Z,0.60
2019-01-09T14:05:15.113Z,1.22
2019-01-09T14:07:44.201Z,0.70
2019-01-09T14:10:15.314Z,0.75
2019-01-09T14:12:44.361Z,1.20
2019-01-09T14:15:15.574Z,0.90
2019-01-09T14:17:44.493Z,2.12
2019-01-09T14:20:13.893Z,1.62
2019-01-09T14:22:42.757Z,1.65
2019-01-09T14:25:13.258Z,1.60
2019-01-09T14:27:42.188Z,2.00
2019-01-09T14:30:20.213Z,1.60
2019-01-09T14:32:49.094Z,1.70
2019-01-09T14:35:18.010Z,1.75
2019-01-09T14:37:46.958Z,1.50
2019-01-09T14:40:17.730Z,1.60
2019-01-09T14:42:46.494Z,1.67
2019-01-09T14:45:16.531Z,1.60
2019-01-09T14:47:45.413Z,1.47
2019-01-09T14:50:19.733Z,1.30
2019-01-09T14:52:48.513Z,1.32
2019-01-09T14:55:17.176Z,1.90
2019-01-09T14:57:46.073Z,1.55
2019-01-09T15:00:18.161Z,1.98
2019-01-09T15:02:47.161Z,1.60
2019-01-09T15:05:17.363Z,1.90
2019-01-09T15:07:46.727Z,1.82
2019-01-09T15:10:20.658Z,1.70
2019-01-09T15:12:49.541Z,1.42
2019-01-09T15:15:18.673Z,1.72
2019-01-09T15:17:47.553Z,1.77
2019-01-09T15:20:18.329Z,1.60
2019-01-09T15:22:47.493Z,1.62
2019-01-09T15:25:16.943Z,1.32
2019-01-09T15:27:45.761Z,1.95
2019-01-09T15:30:26.334Z,1.37
2019-01-09T15:32:55.101Z,1.80
2019-01-09T15:35:23.789Z,1.70
2019-01-09T15:37:53.106Z,1.47
2019-01-09T15:40:26.690Z,2.83
2019-01-09T15:42:55.481Z,1.50
2019-01-09T15:45:25.712Z,1.60
2019-01-09T15:47:54.504Z,1.50
2019-01-09T15:50:25.071Z,2.10
2019-01-09T15:52:54.032Z,1.75
2019-01-09T15:55:22.913Z,1.60
2019-01-09T15:57:53.543Z,1.77
2019-01-09T16:00:25.639Z,1.75
2019-01-09T16:02:54.284Z,1.62
2019-01-09T16:05:23.197Z,1.80
2019-01-09T16:07:52.201Z,1.82
2019-01-09T16:10:24.661Z,1.75
2019-01-09T16:12:53.353Z,1.53
2019-01-09T16:15:22.341Z,2.37
2019-01-09T16:17:51.018Z,1.77
2019-01-09T16:20:22.172Z,2.12
2019-01-09T16:22:51.146Z,2.10
2019-01-09T16:25:21.088Z,2.10
2019-01-09T16:27:49.973Z,1.60
2019-01-09T16:30:33.911Z,1.62
2019-01-09T16:32:58.467Z,2.10
2019-01-09T16:35:28.960Z,1.90
2019-01-09T16:37:57.726Z,2.00
2019-01-09T16:40:26.302Z,1.80
2019-01-09T16:42:55.072Z,1.65
2019-01-09T16:45:23.967Z,1.50
2019-01-09T16:47:52.772Z,1.45
2019-01-09T16:50:22.670Z,1.80
2019-01-09T16:52:51.706Z,1.47
2019-01-09T16:55:20.543Z,1.35
2019-01-09T16:57:49.357Z,1.65
2019-01-09T17:00:36.565Z,1.40
2019-01-09T17:03:05.480Z,1.70
2019-01-09T17:05:35.007Z,1.57
2019-01-09T17:08:04.123Z,1.90
2019-01-09T17:10:33.027Z,1.87
2019-01-09T17:13:01.847Z,1.72
2019-01-09T17:15:30.732Z,2.15
2019-01-09T17:17:59.924Z,2.30
2019-01-09T17:20:30.488Z,1.98
2019-01-09T17:22:59.301Z,1.90
2019-01-09T17:25:28.233Z,1.95
2019-01-09T17:27:57.114Z,1.80
2019-01-09T17:30:29.302Z,2.40
2019-01-09T17:32:58.294Z,2.25
2019-01-09T17:35:27.272Z,2.50
2019-01-09T17:37:56.182Z,2.10
2019-01-09T17:40:44.129Z,1.95
2019-01-09T17:43:12.883Z,2.40
2019-01-09T17:45:41.692Z,2.15
2019-01-09T17:48:10.362Z,2.02
2019-01-09T17:50:39.675Z,2.07
2019-01-09T17:53:08.238Z,2.20
2019-01-09T17:55:37.032Z,2.13
2019-01-09T17:58:05.840Z,1.30
2019-01-09T18:00:40.388Z,1.77
2019-01-09T18:03:09.352Z,2.00
2019-01-09T18:05:38.134Z,2.00
2019-01-09T18:08:10.758Z,2.30
2019-01-09T18:10:38.461Z,2.30
2019-01-09T18:13:07.772Z,2.12
2019-01-09T18:15:36.349Z,2.00
2019-01-09T18:18:04.907Z,2.10
2019-01-09T18:20:33.941Z,1.98
2019-01-09T18:23:02.609Z,2.00
2019-01-09T18:25:31.932Z,2.05
2019-01-09T18:28:01.012Z,2.57
2019-01-09T18:30:35.303Z,2.10
2019-01-09T18:33:07.297Z,2.75
2019-01-09T18:35:55.133Z,2.60
2019-01-09T18:38:32.769Z,2.47
2019-01-09T18:41:22.903Z,2.50
2019-01-09T18:44:02.141Z,1.80
2019-01-09T18:46:59.701Z,1.65
2019-01-09T18:49:43.243Z,1.87
2019-01-09T18:52:17.867Z,1.72
2019-01-09T18:54:46.650Z,1.87
2019-01-09T18:57:15.436Z,1.70
2019-01-09T18:59:44.236Z,2.15
2019-01-09T19:02:13.116Z,1.85
2019-01-09T19:04:41.585Z,2.05
2019-01-09T19:07:10.274Z,2.22
2019-01-09T19:09:39.166Z,1.97
2019-01-09T19:12:07.745Z,1.85
2019-01-09T19:14:36.455Z,2.20
2019-01-09T19:17:05.886Z,2.12
2019-01-09T19:19:34.525Z,1.87
2019-01-09T19:22:03.668Z,2.10
2019-01-09T19:24:32.621Z,1.90
2019-01-09T19:27:01.404Z,1.80
2019-01-09T19:29:30.192Z,1.82
2019-01-09T19:31:59.301Z,1.75
2019-01-09T19:34:27.946Z,2.08
2019-01-09T19:36:56.651Z,1.80
2019-01-09T19:39:25.666Z,1.90
2019-01-09T19:41:54.434Z,1.82
2019-01-09T19:44:23.362Z,1.75
2019-01-09T19:46:52.431Z,2.98
2019-01-09T19:49:21.313Z,2.35
2019-01-09T19:51:50.110Z,2.30
2019-01-09T19:54:19.101Z,2.60
2019-01-09T19:56:47.897Z,2.10
2019-01-09T19:59:16.665Z,2.10
2019-01-09T20:01:45.575Z,2.10
2019-01-09T20:04:14.143Z,2.15
2019-01-09T20:06:42.936Z,2.30
2019-01-09T20:09:11.727Z,1.70
2019-01-09T20:11:40.387Z,1.80
2019-01-09T20:14:08.882Z,2.30
2019-01-09T20:16:37.872Z,2.03
2019-01-09T20:19:06.588Z,2.08
2019-01-09T20:21:35.245Z,2.80
2019-01-09T20:24:04.360Z,3.70
2019-01-09T20:26:33.184Z,4.08
2019-01-09T20:29:01.940Z,3.67
2019-01-09T20:31:30.501Z,3.40
2019-01-09T20:33:59.108Z,3.70
2019-01-09T20:36:27.835Z,3.20
2019-01-09T20:38:56.882Z,3.60
2019-01-09T20:41:25.474Z,3.30
2019-01-09T20:43:53.902Z,3.20
2019-01-09T20:46:23.244Z,3.40
2019-01-09T20:48:51.879Z,3.62
2019-01-09T20:51:20.707Z,2.08
2019-01-09T20:53:49.651Z,2.10
2019-01-09T20:56:18.573Z,2.13
2019-01-09T20:58:47.386Z,2.60
2019-01-09T21:01:16.291Z,2.33
2019-01-09T21:03:45.068Z,2.20
2019-01-09T21:06:13.733Z,2.37
2019-01-09T21:08:42.626Z,2.37
2019-01-09T21:11:11.129Z,2.45
2019-01-09T21:13:40.120Z,2.33
2019-01-09T21:16:08.921Z,2.50
2019-01-09T21:18:37.796Z,2.20
2019-01-09T21:21:06.603Z,1.95
2019-01-09T21:23:35.385Z,2.50
2019-01-09T21:26:03.936Z,2.12
2019-01-09T21:28:32.630Z,1.75
2019-01-09T21:31:01.734Z,2.00
2019-01-09T21:33:30.543Z,2.22
2019-01-09T21:35:59.202Z,2.17
2019-01-09T21:38:28.314Z,2.30
2019-01-09T21:40:57.197Z,2.00
2019-01-09T21:43:26.202Z,2.20
2019-01-09T21:45:55.075Z,2.33
2019-01-09T21:48:23.962Z,2.10
2019-01-09T21:50:52.837Z,2.22
2019-01-09T21:53:21.754Z,2.50
2019-01-09T21:55:50.763Z,1.90
2019-01-09T21:58:19.391Z,2.05
2019-01-09T22:00:48.289Z,1.90
2019-01-09T22:03:17.075Z,2.15
2019-01-09T22:05:45.779Z,2.98
2019-01-09T22:08:14.735Z,2.12
2019-01-09T22:10:44.611Z,2.20
2019-01-09T22:13:15.093Z,1.80
2019-01-09T22:15:43.731Z,1.73
2019-01-09T22:18:12.695Z,2.10
2019-01-09T22:20:41.382Z,2.12
2019-01-09T22:23:10.265Z,1.43
2019-01-09T22:25:39.092Z,1.40
2019-01-09T22:28:07.973Z,1.42
2019-01-09T22:30:38.576Z,1.70
2019-01-09T22:33:07.368Z,1.52
2019-01-09T22:35:41.480Z,1.60
2019-01-09T22:38:06.674Z,1.63
2019-01-09T22:40:35.583Z,1.20
2019-01-09T22:43:04.475Z,1.55
2019-01-09T22:45:33.274Z,1.13
2019-01-09T22:48:02.155Z,1.40
2019-01-09T22:50:30.836Z,1.67
2019-01-09T22:52:59.935Z,1.37
2019-01-09T22:55:28.634Z,2.05
2019-01-09T22:57:57.655Z,1.20
2019-01-09T23:00:38.994Z,1.60
2019-01-09T23:03:10.478Z,1.60
2019-01-09T23:05:39.334Z,1.20
2019-01-09T23:08:08.443Z,1.47
2019-01-09T23:10:37.339Z,1.30
2019-01-09T23:13:06.115Z,1.27
2019-01-09T23:15:34.782Z,1.40
2019-01-09T23:18:03.594Z,2.05
2019-01-09T23:20:32.378Z,1.40
2019-01-09T23:23:01.142Z,1.50
2019-01-09T23:25:30.054Z,1.27
2019-01-09T23:27:58.721Z,1.30
2019-01-09T23:30:27.825Z,1.30
2019-01-09T23:32:56.752Z,1.27
2019-01-09T23:35:25.522Z,1.20
2019-01-09T23:37:54.320Z,1.42
2019-01-09T23:40:23.153Z,1.12
2019-01-09T23:42:51.967Z,1.20
2019-01-09T23:45:20.833Z,1.27
2019-01-09T23:47:49.432Z,1.40
2019-01-09T23:50:18.260Z,1.20
2019-01-09T23:52:47.422Z,1.00
2019-01-09T23:55:16.255Z,1.60
2019-01-09T23:57:44.791Z,1.20
